sensor_id;sensor_type;location;lat;lon;timestamp;temperature;humidity
19945;DHT22;10134;50.952;6.930;2023-11-21T00:00:57;10.10;99.90
19945;DHT22;10134;50.952;6.930;2023-11-21T00:03:26;10.10;99.90
19945;DHT22;10134;50.952;6.930;2023-11-21T00:05:55;10.10;99.90
19945;DHT22;10134;50.952;6.930;2023-11-21T00:08:24;10.10;99.90
19945;DHT22;10134;50.952;6.930;2023-11-21T00:10:53;10.10;99.90
19945;DHT22;10134;50.952;6.930;2023-11-21T00:13:23;10.10;99.90
19945;DHT22;10134;50.952;6.930;2023-11-21T00:15:52;10.10;99.90
19945;DHT22;10134;50.952;6.930;2023-11-21T00:18:21;10.10;99.90
19945;DHT22;10134;50.952;6.930;2023-11-21T00:20:50;10.10;99.90
19945;DHT22;10134;50.952;6.930;2023-11-21T00:23:18;10.10;99.90
19945;DHT22;10134;50.952;6.930;2023-11-21T00:25:47;10.10;99.90
19945;DHT22;10134;50.952;6.930;2023-11-21T00:28:16;10.10;99.90
19945;DHT22;10134;50.952;6.930;2023-11-21T00:30:46;10.10;99.90
19945;DHT22;10134;50.952;6.930;2023-11-21T00:33:14;10.10;99.90
19945;DHT22;10134;50.952;6.930;2023-11-21T00:35:43;10.10;99.90
19945;DHT22;10134;50.952;6.930;2023-11-21T00:38:12;10.10;99.90
19945;DHT22;10134;50.952;6.930;2023-11-21T00:40:41;10.10;99.90
19945;DHT22;10134;50.952;6.930;2023-11-21T00:43:09;10.10;99.90
19945;DHT22;10134;50.952;6.930;2023-11-21T00:45:38;10.10;99.90
19945;DHT22;10134;50.952;6.930;2023-11-21T00:48:08;10.10;99.90
19945;DHT22;10134;50.952;6.930;2023-11-21T00:50:37;10.10;99.90
19945;DHT22;10134;50.952;6.930;2023-11-21T00:53:06;10.10;99.90
19945;DHT22;10134;50.952;6.930;2023-11-21T00:55:35;10.10;99.90
19945;DHT22;10134;50.952;6.930;2023-11-21T00:58:04;10.10;99.90
19945;DHT22;10134;50.952;6.930;2023-11-21T01:00:34;10.10;99.90
19945;DHT22;10134;50.952;6.930;2023-11-21T01:03:03;10.00;99.90
19945;DHT22;10134;50.952;6.930;2023-11-21T01:05:33;10.00;99.90
19945;DHT22;10134;50.952;6.930;2023-11-21T01:08:02;10.00;99.90
19945;DHT22;10134;50.952;6.930;2023-11-21T01:10:30;9.90;99.90
19945;DHT22;10134;50.952;6.930;2023-11-21T01:13:00;9.90;99.90
19945;DHT22;10134;50.952;6.930;2023-11-21T01:15:29;9.80;99.90
19945;DHT22;10134;50.952;6.930;2023-11-21T01:17:58;9.80;99.90
19945;DHT22;10134;50.952;6.930;2023-11-21T01:20:26;9.80;99.90
19945;DHT22;10134;50.952;6.930;2023-11-21T01:22:57;9.80;99.90
19945;DHT22;10134;50.952;6.930;2023-11-21T01:25:25;9.80;99.90
19945;DHT22;10134;50.952;6.930;2023-11-21T01:27:54;9.80;99.90
19945;DHT22;10134;50.952;6.930;2023-11-21T01:30:23;9.80;99.90
19945;DHT22;10134;50.952;6.930;2023-11-21T01:32:53;9.80;99.90
19945;DHT22;10134;50.952;6.930;2023-11-21T01:35:21;9.80;99.90
19945;DHT22;10134;50.952;6.930;2023-11-21T01:37:50;9.80;99.90
19945;DHT22;10134;50.952;6.930;2023-11-21T01:40:20;9.80;99.90
19945;DHT22;10134;50.952;6.930;2023-11-21T01:42:49;9.80;99.90
19945;DHT22;10134;50.952;6.930;2023-11-21T01:45:17;9.80;99.90
19945;DHT22;10134;50.952;6.930;2023-11-21T01:47:47;9.80;99.90
19945;DHT22;10134;50.952;6.930;2023-11-21T01:50:17;9.80;99.90
19945;DHT22;10134;50.952;6.930;2023-11-21T01:52:46;9.80;99.90
19945;DHT22;10134;50.952;6.930;2023-11-21T01:55:17;9.80;99.90
19945;DHT22;10134;50.952;6.930;2023-11-21T01:57:56;9.80;99.90
19945;DHT22;10134;50.952;6.930;2023-11-21T02:00:28;9.80;99.90
19945;DHT22;10134;50.952;6.930;2023-11-21T02:02:58;9.80;99.90
19945;DHT22;10134;50.952;6.930;2023-11-21T02:05:27;9.80;99.90
19945;DHT22;10134;50.952;6.930;2023-11-21T02:07:58;9.70;99.90
19945;DHT22;10134;50.952;6.930;2023-11-21T02:10:28;9.70;99.90
19945;DHT22;10134;50.952;6.930;2023-11-21T02:12:59;9.70;99.90
19945;DHT22;10134;50.952;6.930;2023-11-21T02:15:30;9.70;99.90
19945;DHT22;10134;50.952;6.930;2023-11-21T02:17:59;9.60;99.90
19945;DHT22;10134;50.952;6.930;2023-11-21T02:20:31;9.70;99.90
19945;DHT22;10134;50.952;6.930;2023-11-21T02:23:05;9.70;99.90
19945;DHT22;10134;50.952;6.930;2023-11-21T02:25:34;9.70;99.90
19945;DHT22;10134;50.952;6.930;2023-11-21T02:28:04;9.70;99.90
19945;DHT22;10134;50.952;6.930;2023-11-21T02:30:34;9.70;99.90
19945;DHT22;10134;50.952;6.930;2023-11-21T02:33:04;9.70;99.90
19945;DHT22;10134;50.952;6.930;2023-11-21T02:35:33;9.70;99.90
19945;DHT22;10134;50.952;6.930;2023-11-21T02:38:02;9.70;99.90
19945;DHT22;10134;50.952;6.930;2023-11-21T02:40:32;9.70;99.90
19945;DHT22;10134;50.952;6.930;2023-11-21T02:43:01;9.80;99.90
19945;DHT22;10134;50.952;6.930;2023-11-21T02:45:30;9.80;99.90
19945;DHT22;10134;50.952;6.930;2023-11-21T02:47:59;9.80;99.90
19945;DHT22;10134;50.952;6.930;2023-11-21T02:50:27;9.80;99.90
19945;DHT22;10134;50.952;6.930;2023-11-21T02:52:57;9.80;99.90
19945;DHT22;10134;50.952;6.930;2023-11-21T02:55:28;9.80;99.90
19945;DHT22;10134;50.952;6.930;2023-11-21T02:57:58;9.80;99.90
19945;DHT22;10134;50.952;6.930;2023-11-21T03:00:27;9.80;99.90
19945;DHT22;10134;50.952;6.930;2023-11-21T03:02:56;9.80;99.90
19945;DHT22;10134;50.952;6.930;2023-11-21T03:05:26;9.80;99.90
19945;DHT22;10134;50.952;6.930;2023-11-21T03:07:56;9.80;99.90
19945;DHT22;10134;50.952;6.930;2023-11-21T03:10:26;9.80;99.90
19945;DHT22;10134;50.952;6.930;2023-11-21T03:12:59;9.80;99.90
19945;DHT22;10134;50.952;6.930;2023-11-21T03:15:28;9.80;99.90
19945;DHT22;10134;50.952;6.930;2023-11-21T03:17:58;9.80;99.90
19945;DHT22;10134;50.952;6.930;2023-11-21T03:20:27;9.80;99.90
19945;DHT22;10134;50.952;6.930;2023-11-21T03:22:56;9.80;99.90
19945;DHT22;10134;50.952;6.930;2023-11-21T03:25:27;9.80;99.90
19945;DHT22;10134;50.952;6.930;2023-11-21T03:27:56;9.80;99.90
19945;DHT22;10134;50.952;6.930;2023-11-21T03:30:26;9.80;99.90
19945;DHT22;10134;50.952;6.930;2023-11-21T03:32:55;9.80;99.90
19945;DHT22;10134;50.952;6.930;2023-11-21T03:35:24;9.80;99.90
19945;DHT22;10134;50.952;6.930;2023-11-21T03:37:53;9.70;99.90
19945;DHT22;10134;50.952;6.930;2023-11-21T03:40:22;9.70;99.90
19945;DHT22;10134;50.952;6.930;2023-11-21T03:42:51;9.70;99.90
19945;DHT22;10134;50.952;6.930;2023-11-21T03:45:22;9.70;99.90
19945;DHT22;10134;50.952;6.930;2023-11-21T03:47:52;9.70;99.90
19945;DHT22;10134;50.952;6.930;2023-11-21T03:50:20;9.70;99.90
19945;DHT22;10134;50.952;6.930;2023-11-21T03:52:49;9.70;99.90
19945;DHT22;10134;50.952;6.930;2023-11-21T03:55:18;9.70;99.90
19945;DHT22;10134;50.952;6.930;2023-11-21T03:57:47;9.70;99.90
19945;DHT22;10134;50.952;6.930;2023-11-21T04:00:16;9.70;99.90
19945;DHT22;10134;50.952;6.930;2023-11-21T04:02:45;9.60;99.90
19945;DHT22;10134;50.952;6.930;2023-11-21T04:05:15;9.60;99.90
19945;DHT22;10134;50.952;6.930;2023-11-21T04:07:44;9.60;99.90
19945;DHT22;10134;50.952;6.930;2023-11-21T04:10:13;9.60;99.90
19945;DHT22;10134;50.952;6.930;2023-11-21T04:12:42;9.60;99.90
19945;DHT22;10134;50.952;6.930;2023-11-21T04:15:12;9.60;99.90
19945;DHT22;10134;50.952;6.930;2023-11-21T04:17:42;9.60;99.90
19945;DHT22;10134;50.952;6.930;2023-11-21T04:20:10;9.60;99.90
19945;DHT22;10134;50.952;6.930;2023-11-21T04:22:41;9.60;99.90
19945;DHT22;10134;50.952;6.930;2023-11-21T04:25:12;9.60;99.90
19945;DHT22;10134;50.952;6.930;2023-11-21T04:27:42;9.60;99.90
19945;DHT22;10134;50.952;6.930;2023-11-21T04:30:13;9.60;99.90
19945;DHT22;10134;50.952;6.930;2023-11-21T04:32:41;9.60;99.90
19945;DHT22;10134;50.952;6.930;2023-11-21T04:35:10;9.60;99.90
19945;DHT22;10134;50.952;6.930;2023-11-21T04:37:40;9.60;99.90
19945;DHT22;10134;50.952;6.930;2023-11-21T04:40:10;9.60;99.90
19945;DHT22;10134;50.952;6.930;2023-11-21T04:42:39;9.60;99.90
19945;DHT22;10134;50.952;6.930;2023-11-21T04:45:09;9.60;99.90
19945;DHT22;10134;50.952;6.930;2023-11-21T04:47:40;9.60;99.90
19945;DHT22;10134;50.952;6.930;2023-11-21T04:50:09;9.60;99.90
19945;DHT22;10134;50.952;6.930;2023-11-21T04:52:39;9.60;99.90
19945;DHT22;10134;50.952;6.930;2023-11-21T04:55:08;9.60;99.90
19945;DHT22;10134;50.952;6.930;2023-11-21T04:57:38;9.60;99.90
19945;DHT22;10134;50.952;6.930;2023-11-21T05:00:10;9.60;99.90
19945;DHT22;10134;50.952;6.930;2023-11-21T05:02:40;9.60;99.90
19945;DHT22;10134;50.952;6.930;2023-11-21T05:05:09;9.60;99.90
19945;DHT22;10134;50.952;6.930;2023-11-21T05:07:40;9.60;99.90
19945;DHT22;10134;50.952;6.930;2023-11-21T05:10:09;9.60;99.90
19945;DHT22;10134;50.952;6.930;2023-11-21T05:12:40;9.50;99.90
19945;DHT22;10134;50.952;6.930;2023-11-21T05:15:09;9.50;99.90
19945;DHT22;10134;50.952;6.930;2023-11-21T05:17:40;9.50;99.90
19945;DHT22;10134;50.952;6.930;2023-11-21T05:20:11;9.50;99.90
19945;DHT22;10134;50.952;6.930;2023-11-21T05:22:43;9.50;99.90
19945;DHT22;10134;50.952;6.930;2023-11-21T05:25:11;9.50;99.90
19945;DHT22;10134;50.952;6.930;2023-11-21T05:27:40;9.50;99.90
19945;DHT22;10134;50.952;6.930;2023-11-21T05:30:09;9.50;99.90
19945;DHT22;10134;50.952;6.930;2023-11-21T05:32:40;9.50;99.90
19945;DHT22;10134;50.952;6.930;2023-11-21T05:35:10;9.50;99.90
19945;DHT22;10134;50.952;6.930;2023-11-21T05:37:45;9.50;99.90
19945;DHT22;10134;50.952;6.930;2023-11-21T05:40:15;9.50;99.90
19945;DHT22;10134;50.952;6.930;2023-11-21T05:42:44;9.50;99.90
19945;DHT22;10134;50.952;6.930;2023-11-21T05:45:13;9.50;99.90
19945;DHT22;10134;50.952;6.930;2023-11-21T05:47:44;9.50;99.90
19945;DHT22;10134;50.952;6.930;2023-11-21T05:50:14;9.50;99.90
19945;DHT22;10134;50.952;6.930;2023-11-21T05:52:46;9.50;99.90
19945;DHT22;10134;50.952;6.930;2023-11-21T05:55:15;9.40;99.90
19945;DHT22;10134;50.952;6.930;2023-11-21T05:57:44;9.40;99.90
19945;DHT22;10134;50.952;6.930;2023-11-21T06:00:18;9.50;99.90
19945;DHT22;10134;50.952;6.930;2023-11-21T06:02:49;9.50;99.90
19945;DHT22;10134;50.952;6.930;2023-11-21T06:05:22;9.50;99.90
19945;DHT22;10134;50.952;6.930;2023-11-21T06:07:55;9.50;99.90
19945;DHT22;10134;50.952;6.930;2023-11-21T06:10:26;9.50;99.90
19945;DHT22;10134;50.952;6.930;2023-11-21T06:12:56;9.50;99.90
19945;DHT22;10134;50.952;6.930;2023-11-21T06:15:29;9.50;99.90
19945;DHT22;10134;50.952;6.930;2023-11-21T06:17:58;9.50;99.90
19945;DHT22;10134;50.952;6.930;2023-11-21T06:20:27;9.50;99.90
19945;DHT22;10134;50.952;6.930;2023-11-21T06:22:57;9.50;99.90
19945;DHT22;10134;50.952;6.930;2023-11-21T06:25:25;9.50;99.90
19945;DHT22;10134;50.952;6.930;2023-11-21T06:27:54;9.50;99.90
19945;DHT22;10134;50.952;6.930;2023-11-21T06:30:23;9.50;99.90
19945;DHT22;10134;50.952;6.930;2023-11-21T06:32:52;9.50;99.90
19945;DHT22;10134;50.952;6.930;2023-11-21T06:35:21;9.50;99.90
19945;DHT22;10134;50.952;6.930;2023-11-21T06:37:50;9.50;99.90
19945;DHT22;10134;50.952;6.930;2023-11-21T06:40:21;9.50;99.90
19945;DHT22;10134;50.952;6.930;2023-11-21T06:42:49;9.50;99.90
19945;DHT22;10134;50.952;6.930;2023-11-21T06:45:18;9.50;99.90
19945;DHT22;10134;50.952;6.930;2023-11-21T06:47:48;9.50;99.90
19945;DHT22;10134;50.952;6.930;2023-11-21T06:50:17;9.50;99.90
19945;DHT22;10134;50.952;6.930;2023-11-21T06:52:46;9.50;99.90
19945;DHT22;10134;50.952;6.930;2023-11-21T06:55:16;9.50;99.90
19945;DHT22;10134;50.952;6.930;2023-11-21T06:57:46;9.50;99.90
19945;DHT22;10134;50.952;6.930;2023-11-21T07:00:16;9.50;99.90
19945;DHT22;10134;50.952;6.930;2023-11-21T07:02:46;9.50;99.90
19945;DHT22;10134;50.952;6.930;2023-11-21T07:05:15;9.50;99.90
19945;DHT22;10134;50.952;6.930;2023-11-21T07:07:48;9.50;99.90
19945;DHT22;10134;50.952;6.930;2023-11-21T07:10:18;9.50;99.90
19945;DHT22;10134;50.952;6.930;2023-11-21T07:12:48;9.50;99.90
19945;DHT22;10134;50.952;6.930;2023-11-21T07:15:16;9.50;99.90
19945;DHT22;10134;50.952;6.930;2023-11-21T07:17:46;9.50;99.90
19945;DHT22;10134;50.952;6.930;2023-11-21T07:20:16;9.50;99.90
19945;DHT22;10134;50.952;6.930;2023-11-21T07:22:45;9.50;99.90
19945;DHT22;10134;50.952;6.930;2023-11-21T07:25:14;9.60;99.90
19945;DHT22;10134;50.952;6.930;2023-11-21T07:27:43;9.60;99.90
19945;DHT22;10134;50.952;6.930;2023-11-21T07:30:14;9.60;99.90
19945;DHT22;10134;50.952;6.930;2023-11-21T07:32:42;9.60;99.90
19945;DHT22;10134;50.952;6.930;2023-11-21T07:35:12;9.60;99.90
19945;DHT22;10134;50.952;6.930;2023-11-21T07:37:41;9.60;99.90
19945;DHT22;10134;50.952;6.930;2023-11-21T07:40:11;9.60;99.90
19945;DHT22;10134;50.952;6.930;2023-11-21T07:42:41;9.60;99.90
19945;DHT22;10134;50.952;6.930;2023-11-21T07:45:11;9.60;99.90
19945;DHT22;10134;50.952;6.930;2023-11-21T07:47:41;9.60;99.90
19945;DHT22;10134;50.952;6.930;2023-11-21T07:50:10;9.60;99.90
19945;DHT22;10134;50.952;6.930;2023-11-21T07:52:40;9.60;99.90
19945;DHT22;10134;50.952;6.930;2023-11-21T07:55:09;9.60;99.90
19945;DHT22;10134;50.952;6.930;2023-11-21T07:57:38;9.60;99.90
19945;DHT22;10134;50.952;6.930;2023-11-21T08:00:08;9.60;99.90
19945;DHT22;10134;50.952;6.930;2023-11-21T08:02:40;9.70;99.90
19945;DHT22;10134;50.952;6.930;2023-11-21T08:05:10;9.70;99.90
19945;DHT22;10134;50.952;6.930;2023-11-21T08:07:51;9.70;99.90
19945;DHT22;10134;50.952;6.930;2023-11-21T08:10:20;9.80;99.90
19945;DHT22;10134;50.952;6.930;2023-11-21T08:12:49;9.80;99.90
19945;DHT22;10134;50.952;6.930;2023-11-21T08:15:18;9.80;99.90
19945;DHT22;10134;50.952;6.930;2023-11-21T08:17:48;9.80;99.90
19945;DHT22;10134;50.952;6.930;2023-11-21T08:20:17;9.80;99.90
19945;DHT22;10134;50.952;6.930;2023-11-21T08:22:46;9.80;99.90
19945;DHT22;10134;50.952;6.930;2023-11-21T08:25:16;9.80;99.90
19945;DHT22;10134;50.952;6.930;2023-11-21T08:27:47;9.90;99.90
19945;DHT22;10134;50.952;6.930;2023-11-21T08:30:17;9.90;99.90
19945;DHT22;10134;50.952;6.930;2023-11-21T08:32:48;9.90;99.90
19945;DHT22;10134;50.952;6.930;2023-11-21T08:35:17;10.00;99.90
19945;DHT22;10134;50.952;6.930;2023-11-21T08:37:46;10.00;99.90
19945;DHT22;10134;50.952;6.930;2023-11-21T08:40:14;10.00;99.90
19945;DHT22;10134;50.952;6.930;2023-11-21T08:42:44;10.00;99.90
19945;DHT22;10134;50.952;6.930;2023-11-21T08:45:14;10.00;99.90
19945;DHT22;10134;50.952;6.930;2023-11-21T08:47:45;10.00;99.90
19945;DHT22;10134;50.952;6.930;2023-11-21T08:50:15;10.00;99.90
19945;DHT22;10134;50.952;6.930;2023-11-21T08:52:44;10.00;99.90
19945;DHT22;10134;50.952;6.930;2023-11-21T08:55:14;10.00;99.90
19945;DHT22;10134;50.952;6.930;2023-11-21T08:57:44;10.00;99.90
19945;DHT22;10134;50.952;6.930;2023-11-21T09:00:14;10.00;99.90
19945;DHT22;10134;50.952;6.930;2023-11-21T09:02:44;10.00;99.90
19945;DHT22;10134;50.952;6.930;2023-11-21T09:05:15;10.00;99.90
19945;DHT22;10134;50.952;6.930;2023-11-21T09:07:45;10.10;99.90
19945;DHT22;10134;50.952;6.930;2023-11-21T09:10:16;10.10;99.90
19945;DHT22;10134;50.952;6.930;2023-11-21T09:12:45;10.10;99.90
19945;DHT22;10134;50.952;6.930;2023-11-21T09:15:13;10.10;99.90
19945;DHT22;10134;50.952;6.930;2023-11-21T09:17:42;10.10;99.90
19945;DHT22;10134;50.952;6.930;2023-11-21T09:20:12;10.20;99.90
19945;DHT22;10134;50.952;6.930;2023-11-21T09:22:44;10.20;99.90
19945;DHT22;10134;50.952;6.930;2023-11-21T09:25:14;10.20;99.90
19945;DHT22;10134;50.952;6.930;2023-11-21T09:27:44;10.20;99.90
19945;DHT22;10134;50.952;6.930;2023-11-21T09:30:13;10.20;99.90
19945;DHT22;10134;50.952;6.930;2023-11-21T09:32:42;10.20;99.90
19945;DHT22;10134;50.952;6.930;2023-11-21T09:35:13;10.30;99.90
19945;DHT22;10134;50.952;6.930;2023-11-21T09:37:44;10.30;99.90
19945;DHT22;10134;50.952;6.930;2023-11-21T09:40:22;10.30;99.90
19945;DHT22;10134;50.952;6.930;2023-11-21T09:42:54;10.30;99.90
19945;DHT22;10134;50.952;6.930;2023-11-21T09:45:26;10.40;99.90
19945;DHT22;10134;50.952;6.930;2023-11-21T09:47:56;10.30;99.90
19945;DHT22;10134;50.952;6.930;2023-11-21T09:50:25;10.40;99.90
19945;DHT22;10134;50.952;6.930;2023-11-21T09:52:58;10.40;99.90
19945;DHT22;10134;50.952;6.930;2023-11-21T09:55:34;10.40;99.90
19945;DHT22;10134;50.952;6.930;2023-11-21T09:58:04;10.40;99.90
19945;DHT22;10134;50.952;6.930;2023-11-21T10:00:35;10.40;99.90
19945;DHT22;10134;50.952;6.930;2023-11-21T10:03:07;10.40;99.90
19945;DHT22;10134;50.952;6.930;2023-11-21T10:05:36;10.50;99.90
19945;DHT22;10134;50.952;6.930;2023-11-21T10:08:08;10.50;99.90
19945;DHT22;10134;50.952;6.930;2023-11-21T10:10:38;10.50;99.90
19945;DHT22;10134;50.952;6.930;2023-11-21T10:13:13;10.60;99.90
19945;DHT22;10134;50.952;6.930;2023-11-21T10:15:49;10.60;99.90
19945;DHT22;10134;50.952;6.930;2023-11-21T10:18:18;10.60;99.90
19945;DHT22;10134;50.952;6.930;2023-11-21T10:20:47;10.70;99.90
19945;DHT22;10134;50.952;6.930;2023-11-21T10:23:22;10.70;99.90
19945;DHT22;10134;50.952;6.930;2023-11-21T10:25:52;10.70;99.90
19945;DHT22;10134;50.952;6.930;2023-11-21T10:28:22;10.80;99.90
19945;DHT22;10134;50.952;6.930;2023-11-21T10:30:51;10.80;99.90
19945;DHT22;10134;50.952;6.930;2023-11-21T10:33:27;10.80;99.90
19945;DHT22;10134;50.952;6.930;2023-11-21T10:35:57;10.80;99.90
19945;DHT22;10134;50.952;6.930;2023-11-21T10:38:28;10.90;99.90
19945;DHT22;10134;50.952;6.930;2023-11-21T10:41:05;10.80;99.90
19945;DHT22;10134;50.952;6.930;2023-11-21T10:43:38;10.90;99.90
19945;DHT22;10134;50.952;6.930;2023-11-21T10:46:07;10.90;99.90
19945;DHT22;10134;50.952;6.930;2023-11-21T10:48:36;10.90;99.90
19945;DHT22;10134;50.952;6.930;2023-11-21T10:51:07;11.00;99.90
19945;DHT22;10134;50.952;6.930;2023-11-21T10:53:42;11.00;99.90
19945;DHT22;10134;50.952;6.930;2023-11-21T10:56:15;11.00;99.90
19945;DHT22;10134;50.952;6.930;2023-11-21T10:58:49;11.00;99.90
19945;DHT22;10134;50.952;6.930;2023-11-21T11:01:19;10.90;99.90
19945;DHT22;10134;50.952;6.930;2023-11-21T11:03:50;11.00;99.90
19945;DHT22;10134;50.952;6.930;2023-11-21T11:06:27;11.00;99.90
19945;DHT22;10134;50.952;6.930;2023-11-21T11:08:58;11.00;99.90
19945;DHT22;10134;50.952;6.930;2023-11-21T11:11:30;11.00;99.90
19945;DHT22;10134;50.952;6.930;2023-11-21T11:13:59;11.00;99.90
19945;DHT22;10134;50.952;6.930;2023-11-21T11:16:28;11.00;99.90
19945;DHT22;10134;50.952;6.930;2023-11-21T11:18:58;11.00;99.90
19945;DHT22;10134;50.952;6.930;2023-11-21T11:21:32;11.00;99.90
19945;DHT22;10134;50.952;6.930;2023-11-21T11:24:19;11.10;99.90
19945;DHT22;10134;50.952;6.930;2023-11-21T11:26:56;11.10;99.90
19945;DHT22;10134;50.952;6.930;2023-11-21T11:29:31;11.10;99.90
19945;DHT22;10134;50.952;6.930;2023-11-21T11:32:09;11.00;99.90
19945;DHT22;10134;50.952;6.930;2023-11-21T11:34:46;11.10;99.90
19945;DHT22;10134;50.952;6.930;2023-11-21T11:37:17;11.00;99.90
19945;DHT22;10134;50.952;6.930;2023-11-21T11:39:49;11.00;99.90
19945;DHT22;10134;50.952;6.930;2023-11-21T11:42:18;11.00;99.90
19945;DHT22;10134;50.952;6.930;2023-11-21T11:44:51;11.00;99.90
19945;DHT22;10134;50.952;6.930;2023-11-21T11:47:23;11.10;99.90
19945;DHT22;10134;50.952;6.930;2023-11-21T11:50:06;11.10;99.90
19945;DHT22;10134;50.952;6.930;2023-11-21T11:52:39;11.10;99.90
19945;DHT22;10134;50.952;6.930;2023-11-21T11:55:11;11.10;99.90
19945;DHT22;10134;50.952;6.930;2023-11-21T11:57:42;11.10;99.90
19945;DHT22;10134;50.952;6.930;2023-11-21T12:00:16;11.20;99.90
19945;DHT22;10134;50.952;6.930;2023-11-21T12:02:48;11.20;99.90
19945;DHT22;10134;50.952;6.930;2023-11-21T12:05:18;11.20;99.90
19945;DHT22;10134;50.952;6.930;2023-11-21T12:07:49;11.20;99.90
19945;DHT22;10134;50.952;6.930;2023-11-21T12:10:22;11.20;99.90
19945;DHT22;10134;50.952;6.930;2023-11-21T12:12:54;11.20;99.90
19945;DHT22;10134;50.952;6.930;2023-11-21T12:15:26;11.20;99.90
19945;DHT22;10134;50.952;6.930;2023-11-21T12:17:57;11.20;99.90
19945;DHT22;10134;50.952;6.930;2023-11-21T12:20:27;11.20;99.90
19945;DHT22;10134;50.952;6.930;2023-11-21T12:22:58;11.20;99.90
19945;DHT22;10134;50.952;6.930;2023-11-21T12:25:29;11.20;99.90
19945;DHT22;10134;50.952;6.930;2023-11-21T12:28:00;11.30;99.90
19945;DHT22;10134;50.952;6.930;2023-11-21T12:30:32;11.30;99.90
19945;DHT22;10134;50.952;6.930;2023-11-21T12:33:03;11.30;99.90
19945;DHT22;10134;50.952;6.930;2023-11-21T12:35:35;11.30;99.90
19945;DHT22;10134;50.952;6.930;2023-11-21T12:38:05;11.30;99.90
19945;DHT22;10134;50.952;6.930;2023-11-21T12:40:38;11.30;99.90
19945;DHT22;10134;50.952;6.930;2023-11-21T12:43:07;11.30;99.90
19945;DHT22;10134;50.952;6.930;2023-11-21T12:45:37;11.30;99.90
19945;DHT22;10134;50.952;6.930;2023-11-21T12:48:06;11.30;99.90
19945;DHT22;10134;50.952;6.930;2023-11-21T12:50:38;11.30;99.90
19945;DHT22;10134;50.952;6.930;2023-11-21T12:53:08;11.30;99.90
19945;DHT22;10134;50.952;6.930;2023-11-21T12:55:40;11.30;99.90
19945;DHT22;10134;50.952;6.930;2023-11-21T12:58:10;11.30;99.90
19945;DHT22;10134;50.952;6.930;2023-11-21T13:00:43;11.30;99.90
19945;DHT22;10134;50.952;6.930;2023-11-21T13:03:14;11.30;99.90
19945;DHT22;10134;50.952;6.930;2023-11-21T13:05:46;11.30;99.90
19945;DHT22;10134;50.952;6.930;2023-11-21T13:08:20;11.40;99.90
19945;DHT22;10134;50.952;6.930;2023-11-21T13:10:53;11.40;99.90
19945;DHT22;10134;50.952;6.930;2023-11-21T13:13:24;11.40;99.90
19945;DHT22;10134;50.952;6.930;2023-11-21T13:15:58;11.40;99.90
19945;DHT22;10134;50.952;6.930;2023-11-21T13:18:31;11.40;99.90
19945;DHT22;10134;50.952;6.930;2023-11-21T13:21:01;11.40;99.90
19945;DHT22;10134;50.952;6.930;2023-11-21T13:23:34;11.40;99.90
19945;DHT22;10134;50.952;6.930;2023-11-21T13:26:07;11.40;99.90
19945;DHT22;10134;50.952;6.930;2023-11-21T13:28:37;11.40;99.90
19945;DHT22;10134;50.952;6.930;2023-11-21T13:31:07;11.40;99.90
19945;DHT22;10134;50.952;6.930;2023-11-21T13:33:49;11.40;99.90
19945;DHT22;10134;50.952;6.930;2023-11-21T13:36:24;11.30;99.90
19945;DHT22;10134;50.952;6.930;2023-11-21T13:38:58;11.30;99.90
19945;DHT22;10134;50.952;6.930;2023-11-21T13:41:33;11.30;99.90
19945;DHT22;10134;50.952;6.930;2023-11-21T13:44:02;11.30;99.90
19945;DHT22;10134;50.952;6.930;2023-11-21T13:46:44;11.40;99.90
19945;DHT22;10134;50.952;6.930;2023-11-21T13:49:14;11.30;99.90
19945;DHT22;10134;50.952;6.930;2023-11-21T13:51:44;11.40;99.90
19945;DHT22;10134;50.952;6.930;2023-11-21T13:54:16;11.30;99.90
19945;DHT22;10134;50.952;6.930;2023-11-21T13:56:47;11.40;99.90
19945;DHT22;10134;50.952;6.930;2023-11-21T13:59:18;11.40;99.90
19945;DHT22;10134;50.952;6.930;2023-11-21T14:01:50;11.40;99.90
19945;DHT22;10134;50.952;6.930;2023-11-21T14:04:26;11.40;99.90
19945;DHT22;10134;50.952;6.930;2023-11-21T14:07:14;11.30;99.90
19945;DHT22;10134;50.952;6.930;2023-11-21T14:09:53;11.40;99.90
19945;DHT22;10134;50.952;6.930;2023-11-21T14:12:24;11.30;99.90
19945;DHT22;10134;50.952;6.930;2023-11-21T14:14:53;11.30;99.90
19945;DHT22;10134;50.952;6.930;2023-11-21T14:17:22;11.30;99.90
19945;DHT22;10134;50.952;6.930;2023-11-21T14:19:52;11.30;99.90
19945;DHT22;10134;50.952;6.930;2023-11-21T14:22:23;11.30;99.90
19945;DHT22;10134;50.952;6.930;2023-11-21T14:24:53;11.30;99.90
19945;DHT22;10134;50.952;6.930;2023-11-21T14:27:27;11.30;99.90
19945;DHT22;10134;50.952;6.930;2023-11-21T14:29:56;11.30;99.90
19945;DHT22;10134;50.952;6.930;2023-11-21T14:32:25;11.30;99.90
19945;DHT22;10134;50.952;6.930;2023-11-21T14:34:54;11.30;99.90
19945;DHT22;10134;50.952;6.930;2023-11-21T14:37:23;11.30;99.90
19945;DHT22;10134;50.952;6.930;2023-11-21T14:39:52;11.30;99.90
19945;DHT22;10134;50.952;6.930;2023-11-21T14:42:22;11.30;99.90
19945;DHT22;10134;50.952;6.930;2023-11-21T14:44:55;11.30;99.90
19945;DHT22;10134;50.952;6.930;2023-11-21T14:47:31;11.30;99.90
19945;DHT22;10134;50.952;6.930;2023-11-21T14:50:09;11.30;99.90
19945;DHT22;10134;50.952;6.930;2023-11-21T14:53:04;11.20;99.90
19945;DHT22;10134;50.952;6.930;2023-11-21T14:55:34;11.20;99.90
19945;DHT22;10134;50.952;6.930;2023-11-21T14:58:20;11.20;99.90
19945;DHT22;10134;50.952;6.930;2023-11-21T15:00:56;11.30;99.90
19945;DHT22;10134;50.952;6.930;2023-11-21T15:03:27;11.20;99.90
19945;DHT22;10134;50.952;6.930;2023-11-21T15:06:17;11.20;99.90
19945;DHT22;10134;50.952;6.930;2023-11-21T15:08:55;11.20;99.90
19945;DHT22;10134;50.952;6.930;2023-11-21T15:11:44;11.20;99.90
19945;DHT22;10134;50.952;6.930;2023-11-21T15:14:14;11.20;99.90
19945;DHT22;10134;50.952;6.930;2023-11-21T15:16:50;11.10;99.90
19945;DHT22;10134;50.952;6.930;2023-11-21T15:19:21;11.10;99.90
19945;DHT22;10134;50.952;6.930;2023-11-21T15:21:53;11.10;99.90
19945;DHT22;10134;50.952;6.930;2023-11-21T15:24:22;11.10;99.90
19945;DHT22;10134;50.952;6.930;2023-11-21T15:26:51;11.10;99.90
19945;DHT22;10134;50.952;6.930;2023-11-21T15:29:20;11.10;99.90
19945;DHT22;10134;50.952;6.930;2023-11-21T15:31:50;11.10;99.90
19945;DHT22;10134;50.952;6.930;2023-11-21T15:34:23;11.10;99.90
19945;DHT22;10134;50.952;6.930;2023-11-21T15:36:54;11.10;99.90
19945;DHT22;10134;50.952;6.930;2023-11-21T15:39:22;11.10;99.90
19945;DHT22;10134;50.952;6.930;2023-11-21T15:41:55;11.00;99.90
19945;DHT22;10134;50.952;6.930;2023-11-21T15:44:24;11.00;99.90
19945;DHT22;10134;50.952;6.930;2023-11-21T15:46:55;11.10;99.90
19945;DHT22;10134;50.952;6.930;2023-11-21T15:49:35;11.10;99.90
19945;DHT22;10134;50.952;6.930;2023-11-21T15:52:07;11.00;99.90
19945;DHT22;10134;50.952;6.930;2023-11-21T15:54:40;11.00;99.90
19945;DHT22;10134;50.952;6.930;2023-11-21T15:57:09;11.00;99.90
19945;DHT22;10134;50.952;6.930;2023-11-21T15:59:39;11.00;99.90